Time;durP1;ratioP1;P1;durP2;ratioP2;P2;SDS_P1;SDS_P2;PMS_P1;PMS_P2;Temp;Humidity;BMP_temperature;BMP_pressure;BME280_temperature;BME280_humidity;BME280_pressure;Samples;Min_cycle;Max_cycle;Signal;HPM_P1;HPM_P2
2023/11/24 00:00:49;;;;;;;14.17;2.97;;;;;;;;;;5015710;28;20478;-79
2023/11/24 00:03:14;;;;;;;19.67;2.40;;;;;;;;;;5015686;28;20414;-79
2023/11/24 00:05:40;;;;;;;14.33;1.93;;;;;;;;;;5015624;28;20888;-78
2023/11/24 00:08:06;;;;;;;14.23;3.73;;;;;;;;;;5015581;28;20963;-79
2023/11/24 00:10:34;;;;;;;18.00;2.50;;;;;;;;;;5015254;28;20425;-79
2023/11/24 00:13:01;;;;;;;14.27;3.63;;;;;;;;;;5015533;28;20411;-80
2023/11/24 00:15:26;;;;;;;14.43;3.33;;;;;;;;;;5015432;28;20524;-80
2023/11/24 00:17:52;;;;;;;10.90;2.27;;;;;;;;;;5015414;28;20442;-80
2023/11/24 00:20:21;;;;;;;14.03;2.70;;;;;;;;;;5015368;28;20570;-79
2023/11/24 00:22:48;;;;;;;15.13;4.23;;;;;;;;;;5015414;28;20894;-80
2023/11/24 00:25:14;;;;;;;12.30;2.20;;;;;;;;;;5015108;28;20416;-80
2023/11/24 00:27:40;;;;;;;19.60;2.90;;;;;;;;;;5012327;28;20447;-84
2023/11/24 00:30:07;;;;;;;8.60;2.40;;;;;;;;;;5012928;28;20502;-78
2023/11/24 00:32:34;;;;;;;9.10;1.70;;;;;;;;;;5014765;28;20429;-78
2023/11/24 00:35:01;;;;;;;7.97;1.87;;;;;;;;;;5013092;28;20856;-79
2023/11/24 00:37:27;;;;;;;5.00;0.70;;;;;;;;;;5015096;28;20915;-79
2023/11/24 00:39:53;;;;;;;7.23;0.93;;;;;;;;;;5014964;28;20470;-79
2023/11/24 00:42:21;;;;;;;3.90;0.63;;;;;;;;;;5014760;28;20419;-78
2023/11/24 00:44:46;;;;;;;10.10;0.73;;;;;;;;;;5015090;28;20447;-82
2023/11/24 00:47:12;;;;;;;6.10;0.77;;;;;;;;;;5014998;28;20831;-78
2023/11/24 00:49:39;;;;;;;5.57;0.30;;;;;;;;;;5014747;28;20960;-79
2023/11/24 00:52:05;;;;;;;5.83;0.50;;;;;;;;;;5014622;28;20498;-78
2023/11/24 00:54:31;;;;;;;5.93;0.67;;;;;;;;;;5014809;28;20477;-79
2023/11/24 00:56:57;;;;;;;5.20;0.60;;;;;;;;;;5014446;28;20898;-78
2023/11/24 00:59:23;;;;;;;5.23;0.90;;;;;;;;;;5014733;28;20597;-79
2023/11/24 01:01:49;;;;;;;5.93;0.97;;;;;;;;;;5014797;28;20443;-79
2023/11/24 01:04:16;;;;;;;6.00;0.57;;;;;;;;;;5014698;28;20414;-79
2023/11/24 01:06:42;;;;;;;3.77;0.60;;;;;;;;;;5014653;28;20505;-77
2023/11/24 01:09:09;;;;;;;3.03;0.40;;;;;;;;;;5014677;28;20402;-78
2023/11/24 01:11:35;;;;;;;3.27;0.60;;;;;;;;;;5014226;28;20507;-78
2023/11/24 01:14:02;;;;;;;10.67;1.33;;;;;;;;;;5014371;28;20530;-79
2023/11/24 01:16:28;;;;;;;5.97;0.40;;;;;;;;;;5014325;28;20426;-78
2023/11/24 01:18:56;;;;;;;6.10;0.70;;;;;;;;;;4973622;28;20521;-78
2023/11/24 01:21:22;;;;;;;5.47;1.10;;;;;;;;;;5014179;28;20481;-80
2023/11/24 01:23:48;;;;;;;5.73;0.83;;;;;;;;;;5014316;28;20449;-78
2023/11/24 01:26:15;;;;;;;5.73;0.20;;;;;;;;;;5022361;28;20501;-78
2023/11/24 01:28:41;;;;;;;11.37;0.40;;;;;;;;;;5014260;28;20408;-78
2023/11/24 01:31:07;;;;;;;4.47;0.47;;;;;;;;;;5014069;28;20484;-79
2023/11/24 01:33:33;;;;;;;3.07;0.50;;;;;;;;;;5014155;28;20974;-79
2023/11/24 01:36:00;;;;;;;6.33;1.03;;;;;;;;;;5014051;28;20416;-78
2023/11/24 01:38:26;;;;;;;2.73;0.40;;;;;;;;;;5013830;28;20907;-78
2023/11/24 01:40:52;;;;;;;3.30;0.87;;;;;;;;;;5013659;28;20484;-78
2023/11/24 01:43:18;;;;;;;7.00;1.40;;;;;;;;;;5013945;28;20412;-78
2023/11/24 01:45:45;;;;;;;4.80;0.70;;;;;;;;;;5013846;28;20416;-78
2023/11/24 01:48:11;;;;;;;7.93;1.13;;;;;;;;;;5013739;28;20480;-78
2023/11/24 01:50:38;;;;;;;8.97;1.00;;;;;;;;;;5013906;28;20421;-78
2023/11/24 01:53:06;;;;;;;5.50;0.67;;;;;;;;;;5013825;28;20410;-79
2023/11/24 01:55:32;;;;;;;4.00;0.47;;;;;;;;;;5013478;28;20501;-78
2023/11/24 01:57:58;;;;;;;4.93;0.90;;;;;;;;;;5013574;28;20447;-78
2023/11/24 02:00:25;;;;;;;5.73;0.60;;;;;;;;;;5013651;28;20869;-79
2023/11/24 02:02:51;;;;;;;9.23;1.03;;;;;;;;;;5013644;28;20410;-79
2023/11/24 02:05:18;;;;;;;3.97;0.53;;;;;;;;;;5013593;28;20423;-80
2023/11/24 02:07:44;;;;;;;3.60;0.60;;;;;;;;;;5013440;28;20429;-78
2023/11/24 02:10:11;;;;;;;4.07;0.30;;;;;;;;;;5013173;28;20445;-78
2023/11/24 02:12:37;;;;;;;4.07;0.40;;;;;;;;;;5013514;28;20419;-79
2023/11/24 02:15:04;;;;;;;3.63;0.27;;;;;;;;;;5013482;28;20902;-78
2023/11/24 02:17:36;;;;;;;4.93;0.87;;;;;;;;;;5013421;28;20442;-78
2023/11/24 02:20:05;;;;;;;5.27;0.27;;;;;;;;;;5011189;28;20473;-76
2023/11/24 02:22:36;;;;;;;3.60;0.50;;;;;;;;;;5013211;28;20406;-77
2023/11/24 02:25:02;;;;;;;5.37;1.20;;;;;;;;;;5012834;28;20406;-77
2023/11/24 02:27:28;;;;;;;2.63;0.60;;;;;;;;;;5012999;28;20781;-79
2023/11/24 02:29:54;;;;;;;2.10;0.33;;;;;;;;;;5012933;28;20420;-77
2023/11/24 02:32:20;;;;;;;5.43;0.63;;;;;;;;;;5012800;28;20452;-78
2023/11/24 02:34:45;;;;;;;2.73;0.63;;;;;;;;;;5013099;28;20917;-77
2023/11/24 02:37:11;;;;;;;5.27;0.50;;;;;;;;;;5013036;28;20418;-78
2023/11/24 02:39:37;;;;;;;3.70;0.63;;;;;;;;;;5012820;28;20465;-77
2023/11/24 02:42:03;;;;;;;1.40;0.27;;;;;;;;;;5012581;28;20414;-76
2023/11/24 02:44:29;;;;;;;2.00;0.43;;;;;;;;;;5012749;28;20411;-82
2023/11/24 02:46:55;;;;;;;5.17;0.50;;;;;;;;;;5012627;28;20930;-76
2023/11/24 02:49:21;;;;;;;5.17;0.80;;;;;;;;;;5012897;28;20890;-78
2023/11/24 02:51:47;;;;;;;3.50;0.80;;;;;;;;;;5012849;28;20407;-78
2023/11/24 02:54:13;;;;;;;2.13;0.40;;;;;;;;;;5012947;28;20776;-77
2023/11/24 02:56:39;;;;;;;5.80;1.47;;;;;;;;;;5011892;28;20916;-78
2023/11/24 02:59:05;;;;;;;5.50;0.37;;;;;;;;;;5014700;28;20420;-77
2023/11/24 03:01:31;;;;;;;3.33;0.40;;;;;;;;;;5016773;28;20519;-77
2023/11/24 03:03:57;;;;;;;4.90;0.33;;;;;;;;;;5016648;28;20911;-77
2023/11/24 03:06:23;;;;;;;5.43;0.50;;;;;;;;;;5016729;28;20421;-77
2023/11/24 03:08:51;;;;;;;8.20;0.63;;;;;;;;;;5022568;28;20415;-78
2023/11/24 03:11:17;;;;;;;5.73;0.60;;;;;;;;;;5035189;28;20504;-77
2023/11/24 03:13:44;;;;;;;3.60;0.30;;;;;;;;;;5036427;28;20436;-78
2023/11/24 03:16:10;;;;;;;3.17;0.30;;;;;;;;;;5036265;28;20768;-77
2023/11/24 03:18:36;;;;;;;3.13;0.73;;;;;;;;;;5036540;28;20450;-76
2023/11/24 03:21:02;;;;;;;4.23;0.50;;;;;;;;;;5036386;28;20977;-78
2023/11/24 03:23:28;;;;;;;9.50;0.57;;;;;;;;;;5028032;28;20421;-78
2023/11/24 03:25:54;;;;;;;8.77;1.30;;;;;;;;;;5015787;28;20421;-77
2023/11/24 03:28:23;;;;;;;5.50;1.67;;;;;;;;;;5016343;28;20413;-77
2023/11/24 03:30:50;;;;;;;6.53;1.23;;;;;;;;;;5016291;28;20496;-78
2023/11/24 03:33:20;;;;;;;10.03;0.90;;;;;;;;;;5016486;28;20414;-78
2023/11/24 03:35:46;;;;;;;7.30;0.53;;;;;;;;;;5016563;28;20631;-77
2023/11/24 03:38:12;;;;;;;9.13;2.00;;;;;;;;;;5016442;28;20406;-78
2023/11/24 03:40:37;;;;;;;7.80;1.30;;;;;;;;;;5015971;28;20830;-77
2023/11/24 03:43:03;;;;;;;6.37;0.87;;;;;;;;;;5016301;28;20882;-77
2023/11/24 03:45:29;;;;;;;7.53;1.53;;;;;;;;;;5016292;28;20417;-78
2023/11/24 03:47:55;;;;;;;8.13;1.30;;;;;;;;;;5016202;28;20404;-77
2023/11/24 03:50:21;;;;;;;5.23;0.73;;;;;;;;;;5016106;28;20414;-78
2023/11/24 03:52:47;;;;;;;6.03;0.63;;;;;;;;;;5016086;28;20463;-78
2023/11/24 03:55:13;;;;;;;5.53;0.93;;;;;;;;;;5015659;28;20422;-78
2023/11/24 03:57:39;;;;;;;2.87;0.60;;;;;;;;;;5016131;28;20425;-78
2023/11/24 04:00:06;;;;;;;6.63;0.97;;;;;;;;;;5015931;28;20469;-79
2023/11/24 04:02:32;;;;;;;6.13;0.50;;;;;;;;;;5015927;28;20406;-78
2023/11/24 04:04:58;;;;;;;5.23;0.70;;;;;;;;;;5015883;28;20450;-79
2023/11/24 04:07:25;;;;;;;12.47;1.23;;;;;;;;;;5015803;28;20414;-79
2023/11/24 04:09:51;;;;;;;5.43;0.63;;;;;;;;;;5015449;28;20422;-78
2023/11/24 04:12:17;;;;;;;2.47;0.47;;;;;;;;;;5015767;28;20416;-79
2023/11/24 04:14:43;;;;;;;6.97;1.00;;;;;;;;;;5015763;28;20414;-78
2023/11/24 04:17:09;;;;;;;8.10;1.10;;;;;;;;;;5015676;28;20411;-77
2023/11/24 04:19:36;;;;;;;4.60;1.10;;;;;;;;;;5015577;28;20457;-80
2023/11/24 04:22:02;;;;;;;5.90;0.40;;;;;;;;;;5014618;28;20982;-77
2023/11/24 04:24:27;;;;;;;6.57;0.57;;;;;;;;;;4975928;28;20430;-78
2023/11/24 04:26:53;;;;;;;4.07;0.80;;;;;;;;;;5015076;28;20421;-79
2023/11/24 04:29:21;;;;;;;5.43;0.90;;;;;;;;;;5015488;28;20922;-79
2023/11/24 04:31:47;;;;;;;3.30;0.57;;;;;;;;;;5015147;28;20461;-78
2023/11/24 04:34:13;;;;;;;8.63;1.00;;;;;;;;;;5014887;28;20426;-78
2023/11/24 04:36:39;;;;;;;8.07;0.87;;;;;;;;;;5015209;28;20773;-78
2023/11/24 04:39:05;;;;;;;10.50;1.00;;;;;;;;;;5015106;28;20406;-78
2023/11/24 04:41:31;;;;;;;11.03;1.73;;;;;;;;;;5014879;28;20422;-76
2023/11/24 04:43:57;;;;;;;7.47;1.10;;;;;;;;;;5015196;28;20428;-77
2023/11/24 04:46:23;;;;;;;6.83;1.20;;;;;;;;;;5015145;28;20508;-79
2023/11/24 04:48:50;;;;;;;3.00;0.53;;;;;;;;;;5015053;28;20468;-78
2023/11/24 04:51:16;;;;;;;10.27;1.10;;;;;;;;;;5015023;28;20424;-78
2023/11/24 04:53:41;;;;;;;5.07;0.40;;;;;;;;;;5014991;28;20440;-78
2023/11/24 04:56:08;;;;;;;3.00;0.70;;;;;;;;;;5014636;28;20440;-78
2023/11/24 04:58:34;;;;;;;6.93;0.50;;;;;;;;;;5014890;28;20941;-78
2023/11/24 05:00:59;;;;;;;4.50;0.50;;;;;;;;;;5014725;28;20505;-78
2023/11/24 05:03:25;;;;;;;5.67;0.50;;;;;;;;;;5014801;28;20503;-79
2023/11/24 05:05:51;;;;;;;2.97;0.30;;;;;;;;;;5014655;28;20980;-78
2023/11/24 05:08:17;;;;;;;2.90;0.20;;;;;;;;;;5014871;28;20406;-77
2023/11/24 05:10:43;;;;;;;4.40;0.70;;;;;;;;;;5014272;28;20457;-78
2023/11/24 05:13:09;;;;;;;4.33;0.50;;;;;;;;;;5014612;28;20406;-78
2023/11/24 05:15:38;;;;;;;3.70;0.40;;;;;;;;;;5014573;28;20425;-78
2023/11/24 05:18:07;;;;;;;7.63;1.50;;;;;;;;;;5014558;28;20914;-77
2023/11/24 05:20:33;;;;;;;4.10;0.93;;;;;;;;;;5014252;28;20572;-77
2023/11/24 05:22:59;;;;;;;4.73;1.60;;;;;;;;;;5014119;28;20504;-77
2023/11/24 05:25:25;;;;;;;7.60;1.00;;;;;;;;;;4972456;28;20589;-78
2023/11/24 05:27:50;;;;;;;6.10;1.07;;;;;;;;;;5014356;28;20406;-77
2023/11/24 05:30:16;;;;;;;8.23;1.43;;;;;;;;;;5014022;28;20414;-77
2023/11/24 05:32:44;;;;;;;11.30;2.60;;;;;;;;;;5014342;28;20415;-75
2023/11/24 05:35:10;;;;;;;5.10;0.83;;;;;;;;;;5014069;28;20410;-76
2023/11/24 05:37:36;;;;;;;13.90;2.13;;;;;;;;;;5014237;28;20448;-76
2023/11/24 05:40:05;;;;;;;8.97;1.10;;;;;;;;;;5013481;28;20549;-77
2023/11/24 05:42:31;;;;;;;9.57;1.13;;;;;;;;;;5013978;28;20764;-75
2023/11/24 05:44:57;;;;;;;7.67;0.70;;;;;;;;;;5013801;28;20402;-77
2023/11/24 05:47:23;;;;;;;10.43;1.43;;;;;;;;;;5013890;28;20415;-78
2023/11/24 05:49:51;;;;;;;7.20;1.20;;;;;;;;;;5013908;28;20756;-76
2023/11/24 05:52:18;;;;;;;5.53;0.80;;;;;;;;;;5013883;28;20410;-77
2023/11/24 05:54:43;;;;;;;7.23;1.20;;;;;;;;;;5013477;28;20886;-76
2023/11/24 05:57:09;;;;;;;12.90;1.73;;;;;;;;;;5013855;28;20428;-77
2023/11/24 05:59:35;;;;;;;11.30;2.27;;;;;;;;;;5013800;28;20453;-76
2023/11/24 06:02:03;;;;;;;7.10;1.07;;;;;;;;;;5032874;28;20806;-77
2023/11/24 06:04:29;;;;;;;4.40;0.40;;;;;;;;;;5033409;28;20412;-77
2023/11/24 06:06:55;;;;;;;7.93;0.90;;;;;;;;;;5034940;28;20416;-77
2023/11/24 06:09:21;;;;;;;8.13;1.00;;;;;;;;;;5034170;28;20417;-77
2023/11/24 06:11:47;;;;;;;7.70;2.00;;;;;;;;;;5033273;28;20917;-76
2023/11/24 06:14:13;;;;;;;6.63;1.10;;;;;;;;;;5024151;28;20425;-78
2023/11/24 06:16:38;;;;;;;10.70;1.27;;;;;;;;;;5013650;28;20409;-77
2023/11/24 06:19:04;;;;;;;5.50;1.00;;;;;;;;;;5018653;28;20424;-78
2023/11/24 06:21:30;;;;;;;7.67;0.87;;;;;;;;;;5023774;28;20451;-80
2023/11/24 06:23:56;;;;;;;8.33;1.40;;;;;;;;;;5009803;28;20458;-79
2023/11/24 06:26:23;;;;;;;10.30;1.70;;;;;;;;;;5012194;28;20827;-78
2023/11/24 06:28:49;;;;;;;4.03;0.73;;;;;;;;;;5013077;28;20418;-78
2023/11/24 06:31:15;;;;;;;9.90;1.10;;;;;;;;;;5013157;28;20821;-77
2023/11/24 06:33:41;;;;;;;6.23;0.47;;;;;;;;;;5012595;28;20890;-78
2023/11/24 06:36:08;;;;;;;8.57;1.20;;;;;;;;;;4983013;28;20497;-77
2023/11/24 06:38:34;;;;;;;6.80;1.17;;;;;;;;;;5005208;28;20503;-77
2023/11/24 06:41:00;;;;;;;4.17;0.90;;;;;;;;;;5012799;28;21014;-77
2023/11/24 06:43:29;;;;;;;4.07;0.60;;;;;;;;;;5013327;28;20420;-77
2023/11/24 06:45:55;;;;;;;8.53;1.53;;;;;;;;;;5013126;28;20498;-77
2023/11/24 06:48:21;;;;;;;6.23;1.00;;;;;;;;;;5013099;28;20514;-77
2023/11/24 06:50:46;;;;;;;6.63;1.70;;;;;;;;;;5013060;28;20504;-78
2023/11/24 06:53:13;;;;;;;13.00;2.17;;;;;;;;;;5013047;28;20418;-77
2023/11/24 06:55:39;;;;;;;12.07;1.77;;;;;;;;;;5012814;28;20785;-77
2023/11/24 06:58:07;;;;;;;4.27;1.13;;;;;;;;;;5013080;28;20406;-78
2023/11/24 07:00:33;;;;;;;5.80;1.10;;;;;;;;;;5012979;28;20530;-78
2023/11/24 07:02:58;;;;;;;5.40;1.67;;;;;;;;;;5013041;28;20410;-77
2023/11/24 07:05:24;;;;;;;4.63;0.83;;;;;;;;;;5012967;28;20422;-77
2023/11/24 07:07:51;;;;;;;2.27;0.40;;;;;;;;;;5012849;28;20406;-77
2023/11/24 07:10:17;;;;;;;2.20;0.30;;;;;;;;;;5012001;28;20506;-79
2023/11/24 07:12:43;;;;;;;2.00;0.90;;;;;;;;;;5012835;28;20402;-78
2023/11/24 07:15:11;;;;;;;0.47;0.20;;;;;;;;;;5012975;28;20517;-78
2023/11/24 07:17:43;;;;;;;3.23;0.23;;;;;;;;;;5012938;28;20500;-78
2023/11/24 07:20:11;;;;;;;3.73;1.07;;;;;;;;;;5012764;28;20555;-78
2023/11/24 07:22:38;;;;;;;5.17;0.87;;;;;;;;;;5012741;28;20812;-78
2023/11/24 07:25:04;;;;;;;3.00;0.53;;;;;;;;;;5012554;28;20424;-78
2023/11/24 07:27:30;;;;;;;3.90;0.80;;;;;;;;;;5012921;28;20406;-78
2023/11/24 07:29:56;;;;;;;3.23;0.40;;;;;;;;;;5012797;28;20421;-79
2023/11/24 07:32:27;;;;;;;3.70;0.50;;;;;;;;;;5012538;28;20462;-78
2023/11/24 07:34:52;;;;;;;8.00;1.50;;;;;;;;;;5012631;28;21049;-78
2023/11/24 07:37:18;;;;;;;0.77;0.50;;;;;;;;;;5012774;28;20511;-79
2023/11/24 07:39:45;;;;;;;2.90;0.40;;;;;;;;;;4989887;28;20463;-79
2023/11/24 07:42:11;;;;;;;5.17;0.50;;;;;;;;;;5032389;28;20424;-78
2023/11/24 07:44:37;;;;;;;4.70;0.60;;;;;;;;;;5033436;28;20473;-78
2023/11/24 07:47:04;;;;;;;4.40;0.60;;;;;;;;;;5035969;28;20452;-78
2023/11/24 07:49:33;;;;;;;2.20;0.70;;;;;;;;;;5035978;28;20418;-79
2023/11/24 07:52:01;;;;;;;7.20;2.90;;;;;;;;;;5035972;28;20422;-79
2023/11/24 07:54:26;;;;;;;4.30;0.67;;;;;;;;;;5035559;28;20412;-79
2023/11/24 07:56:52;;;;;;;6.17;0.60;;;;;;;;;;5035633;28;20507;-78
2023/11/24 07:59:18;;;;;;;4.30;0.80;;;;;;;;;;5035712;28;20437;-77
2023/11/24 08:01:47;;;;;;;6.20;1.00;;;;;;;;;;5035613;28;20854;-78
2023/11/24 08:04:13;;;;;;;6.60;1.60;;;;;;;;;;5035718;28;20409;-77
2023/11/24 08:06:42;;;;;;;6.47;0.90;;;;;;;;;;5035638;28;20919;-79
2023/11/24 08:09:08;;;;;;;6.40;0.83;;;;;;;;;;5035095;28;20494;-77
2023/11/24 08:11:34;;;;;;;3.53;0.70;;;;;;;;;;5035538;28;20447;-79
2023/11/24 08:14:00;;;;;;;5.30;0.40;;;;;;;;;;5035425;28;20472;-79
2023/11/24 08:16:26;;;;;;;6.20;0.40;;;;;;;;;;5035563;28;20467;-78
2023/11/24 08:18:52;;;;;;;5.43;0.60;;;;;;;;;;5035369;28;20513;-79
2023/11/24 08:21:18;;;;;;;5.23;1.40;;;;;;;;;;5035321;28;20902;-79
2023/11/24 08:23:44;;;;;;;5.10;0.50;;;;;;;;;;5035446;28;20765;-78
2023/11/24 08:26:21;;;;;;;5.00;0.73;;;;;;;;;;5035144;28;20429;-79
2023/11/24 08:28:47;;;;;;;2.90;0.53;;;;;;;;;;5035416;28;20411;-77
2023/11/24 08:31:19;;;;;;;6.93;0.77;;;;;;;;;;5034904;28;20871;-79
2023/11/24 08:33:54;;;;;;;4.40;0.60;;;;;;;;;;5034959;28;20496;-78
2023/11/24 08:36:20;;;;;;;5.63;0.50;;;;;;;;;;5034835;28;20408;-80
2023/11/24 08:38:46;;;;;;;4.00;0.77;;;;;;;;;;4994433;28;20436;-78
2023/11/24 08:41:13;;;;;;;4.13;1.23;;;;;;;;;;5034600;28;20831;-79
2023/11/24 08:43:40;;;;;;;2.33;0.40;;;;;;;;;;5034866;28;20436;-77
2023/11/24 08:46:08;;;;;;;2.70;0.23;;;;;;;;;;5034946;28;20760;-78
2023/11/24 08:48:35;;;;;;;2.97;0.37;;;;;;;;;;5034819;28;20414;-78
2023/11/24 08:51:01;;;;;;;6.97;0.60;;;;;;;;;;5034948;28;20467;-79
2023/11/24 08:53:27;;;;;;;2.73;0.70;;;;;;;;;;5034815;28;20427;-78
2023/11/24 08:55:53;;;;;;;7.27;1.07;;;;;;;;;;5033312;28;20514;-77
2023/11/24 08:58:19;;;;;;;4.60;0.67;;;;;;;;;;5034640;28;20900;-78
2023/11/24 09:00:49;;;;;;;9.27;1.07;;;;;;;;;;5034543;28;20481;-76
2023/11/24 09:03:17;;;;;;;4.57;0.70;;;;;;;;;;5034521;28;20473;-78
2023/11/24 09:05:43;;;;;;;2.50;0.40;;;;;;;;;;5034621;28;20401;-78
2023/11/24 09:08:09;;;;;;;7.70;1.27;;;;;;;;;;5034351;28;20401;-77
2023/11/24 09:10:34;;;;;;;5.37;0.30;;;;;;;;;;5034068;28;20410;-78
2023/11/24 09:13:00;;;;;;;5.73;0.77;;;;;;;;;;5034466;28;20764;-78
2023/11/24 09:15:26;;;;;;;5.03;0.40;;;;;;;;;;5034333;28;20457;-77
2023/11/24 09:17:53;;;;;;;5.53;1.13;;;;;;;;;;5034336;28;20415;-77
2023/11/24 09:20:19;;;;;;;4.73;0.60;;;;;;;;;;5021794;28;20486;-80
2023/11/24 09:22:45;;;;;;;5.07;0.80;;;;;;;;;;5013971;28;20507;-80
2023/11/24 09:25:14;;;;;;;4.90;1.10;;;;;;;;;;5013626;28;20495;-83
2023/11/24 09:27:40;;;;;;;4.80;0.60;;;;;;;;;;5014333;28;20418;-84
2023/11/24 09:30:08;;;;;;;4.10;0.67;;;;;;;;;;5014066;28;20412;-79
2023/11/24 09:32:34;;;;;;;5.70;0.83;;;;;;;;;;5014390;28;20773;-83
2023/11/24 09:35:06;;;;;;;8.57;0.93;;;;;;;;;;5014015;28;20783;-84
2023/11/24 09:37:33;;;;;;;6.80;1.27;;;;;;;;;;5014346;28;20403;-85
2023/11/24 09:39:59;;;;;;;1.97;0.60;;;;;;;;;;5010321;28;20471;-85
2023/11/24 09:42:30;;;;;;;4.07;0.63;;;;;;;;;;4980631;28;20489;-79
2023/11/24 09:44:58;;;;;;;5.33;0.97;;;;;;;;;;5033099;28;20409;-79
2023/11/24 09:47:24;;;;;;;5.00;0.50;;;;;;;;;;5033312;28;20416;-79
2023/11/24 09:49:56;;;;;;;5.97;0.90;;;;;;;;;;5032194;28;21055;-79
2023/11/24 09:52:27;;;;;;;7.50;0.63;;;;;;;;;;5033661;28;20766;-79
2023/11/24 09:54:55;;;;;;;4.83;0.57;;;;;;;;;;5033297;28;20433;-79
2023/11/24 09:57:21;;;;;;;3.87;0.57;;;;;;;;;;5033540;28;20412;-79
2023/11/24 09:59:47;;;;;;;4.27;0.47;;;;;;;;;;5033441;28;20474;-78
2023/11/24 10:02:17;;;;;;;4.90;0.37;;;;;;;;;;5033577;28;20405;-78
2023/11/24 10:04:43;;;;;;;7.90;1.40;;;;;;;;;;5033452;28;20841;-78
2023/11/24 10:07:15;;;;;;;5.10;0.77;;;;;;;;;;5033171;28;20409;-78
2023/11/24 10:09:41;;;;;;;3.93;0.30;;;;;;;;;;5032975;28;20423;-78
2023/11/24 10:12:07;;;;;;;9.30;0.87;;;;;;;;;;5033253;28;20416;-78
2023/11/24 10:14:33;;;;;;;2.97;0.63;;;;;;;;;;5033181;28;20900;-77
2023/11/24 10:17:00;;;;;;;4.67;0.53;;;;;;;;;;5033343;28;20455;-78
2023/11/24 10:19:27;;;;;;;5.60;0.90;;;;;;;;;;5033047;28;20410;-77
2023/11/24 10:21:53;;;;;;;5.20;0.70;;;;;;;;;;5033310;28;20424;-77
2023/11/24 10:24:21;;;;;;;8.00;0.73;;;;;;;;;;5032997;28;20411;-77
2023/11/24 10:26:46;;;;;;;8.27;1.00;;;;;;;;;;5033149;28;20477;-78
2023/11/24 10:29:14;;;;;;;10.47;1.90;;;;;;;;;;5033119;28;20407;-79
2023/11/24 10:31:40;;;;;;;2.97;0.60;;;;;;;;;;5032872;28;20464;-78
2023/11/24 10:34:06;;;;;;;5.67;1.33;;;;;;;;;;5032985;28;20413;-78
2023/11/24 10:36:34;;;;;;;4.90;0.60;;;;;;;;;;5029304;28;20413;-77
2023/11/24 10:39:03;;;;;;;8.70;1.23;;;;;;;;;;5011733;28;20411;-82
2023/11/24 10:41:30;;;;;;;8.27;0.93;;;;;;;;;;5012024;28;20480;-80
2023/11/24 10:43:56;;;;;;;5.30;1.03;;;;;;;;;;5013282;28;20412;-81
2023/11/24 10:46:27;;;;;;;4.30;0.40;;;;;;;;;;5013617;28;20911;-88
2023/11/24 10:49:07;;;;;;;6.63;1.25;;;;;;;;;;5013250;28;20510;-92
2023/11/24 10:51:40;;;;;;;2.77;1.33;;;;;;;;;;5014183;28;20168;-87
2023/11/24 10:54:07;;;;;;;3.73;0.90;;;;;;;;;;5019784;28;20414;-86
2023/11/24 10:56:36;;;;;;;4.50;1.10;;;;;;;;;;5032041;28;20441;-85
2023/11/24 10:59:04;;;;;;;6.90;0.80;;;;;;;;;;5027986;28;20472;-85
2023/11/24 11:01:30;;;;;;;9.10;0.37;;;;;;;;;;5014382;28;20482;-84
2023/11/24 11:03:56;;;;;;;3.60;0.70;;;;;;;;;;5013446;28;20415;-83
2023/11/24 11:06:34;;;;;;;5.97;0.30;;;;;;;;;;5013230;28;20421;-82
2023/11/24 11:09:23;;;;;;;4.07;0.40;;;;;;;;;;5012646;28;20499;-81
2023/11/24 11:11:49;;;;;;;11.80;1.27;;;;;;;;;;5012846;28;20505;-81
2023/11/24 11:14:17;;;;;;;2.50;0.30;;;;;;;;;;5013102;28;20442;-87
2023/11/24 11:16:44;;;;;;;2.90;0.60;;;;;;;;;;5012983;28;20413;-81
2023/11/24 11:19:29;;;;;;;6.07;0.70;;;;;;;;;;5013636;28;20443;-84
2023/11/24 11:21:56;;;;;;;6.20;0.80;;;;;;;;;;5017273;28;20955;-84
2023/11/24 11:24:28;;;;;;;3.23;0.67;;;;;;;;;;5018441;28;20402;-84
2023/11/24 11:26:54;;;;;;;4.67;0.40;;;;;;;;;;5017033;28;20461;-83
2023/11/24 11:29:23;;;;;;;4.27;0.37;;;;;;;;;;5016733;28;20400;-83
2023/11/24 11:31:50;;;;;;;8.43;1.03;;;;;;;;;;5016407;28;20468;-84
2023/11/24 11:34:17;;;;;;;5.70;0.87;;;;;;;;;;5016679;28;20445;-83
2023/11/24 11:36:51;;;;;;;3.90;0.50;;;;;;;;;;5016845;28;20408;-84
2023/11/24 11:39:27;;;;;;;2.07;0.33;;;;;;;;;;5016267;28;20452;-85
2023/11/24 11:41:55;;;;;;;7.30;0.87;;;;;;;;;;5016598;28;20427;-84
2023/11/24 11:44:23;;;;;;;4.10;0.50;;;;;;;;;;5016457;28;20783;-84
2023/11/24 11:47:20;;;;;;;5.20;1.10;;;;;;;;;;5016561;28;20404;-83
2023/11/24 11:49:51;;;;;;;2.43;0.20;;;;;;;;;;5016396;28;20815;-83
2023/11/24 11:52:20;;;;;;;5.60;0.90;;;;;;;;;;5016009;28;20828;-81
2023/11/24 11:54:48;;;;;;;1.60;0.37;;;;;;;;;;5015837;28;20399;-84
2023/11/24 11:57:14;;;;;;;4.30;0.20;;;;;;;;;;5016077;28;20421;-84
2023/11/24 11:59:40;;;;;;;4.73;0.20;;;;;;;;;;5015960;28;20514;-83
2023/11/24 12:02:11;;;;;;;3.97;0.20;;;;;;;;;;5015819;28;20422;-84
2023/11/24 12:04:37;;;;;;;2.00;0.30;;;;;;;;;;5015744;28;20532;-83
2023/11/24 12:07:12;;;;;;;2.33;0.33;;;;;;;;;;5015943;28;20421;-85
2023/11/24 12:09:42;;;;;;;2.00;0.20;;;;;;;;;;5015400;28;20436;-82
2023/11/24 12:12:12;;;;;;;2.20;0.30;;;;;;;;;;4988932;28;20431;-81
2023/11/24 12:14:41;;;;;;;2.87;0.57;;;;;;;;;;5035548;28;20415;-82
2023/11/24 12:17:08;;;;;;;3.93;1.07;;;;;;;;;;5035029;28;20498;-83
2023/11/24 12:19:34;;;;;;;2.53;0.40;;;;;;;;;;5035436;28;20412;-83
2023/11/24 12:22:01;;;;;;;3.53;0.20;;;;;;;;;;5035125;28;20509;-82
2023/11/24 12:24:28;;;;;;;2.50;0.30;;;;;;;;;;5035060;28;20489;-82
2023/11/24 12:26:57;;;;;;;2.53;0.53;;;;;;;;;;5035504;28;20412;-84
2023/11/24 12:29:27;;;;;;;2.77;0.20;;;;;;;;;;5034795;28;20892;-84
2023/11/24 12:31:53;;;;;;;5.40;0.47;;;;;;;;;;5033446;28;20466;-84
2023/11/24 12:34:20;;;;;;;4.10;0.70;;;;;;;;;;5035288;28;20407;-84
2023/11/24 12:36:46;;;;;;;1.53;0.30;;;;;;;;;;5050438;28;20822;-83
2023/11/24 12:39:13;;;;;;;5.83;0.30;;;;;;;;;;5034688;28;20420;-81
2023/11/24 12:41:42;;;;;;;6.27;0.40;;;;;;;;;;5034737;28;20560;-89
2023/11/24 12:44:09;;;;;;;4.63;0.63;;;;;;;;;;5035190;28;20435;-81
2023/11/24 12:46:35;;;;;;;4.63;0.20;;;;;;;;;;5034826;28;20407;-79
2023/11/24 12:49:02;;;;;;;7.70;0.53;;;;;;;;;;5034451;28;20402;-79
2023/11/24 12:51:28;;;;;;;3.73;0.57;;;;;;;;;;5034761;28;20409;-78
2023/11/24 12:53:54;;;;;;;3.13;0.43;;;;;;;;;;5034436;28;20504;-79
2023/11/24 12:56:20;;;;;;;2.63;0.27;;;;;;;;;;5034867;28;20499;-80
2023/11/24 12:58:46;;;;;;;7.63;1.20;;;;;;;;;;5034748;28;20895;-80
2023/11/24 13:01:12;;;;;;;1.90;0.60;;;;;;;;;;5034539;28;20482;-79
2023/11/24 13:03:38;;;;;;;3.70;0.60;;;;;;;;;;5034790;28;20753;-78
2023/11/24 13:06:04;;;;;;;4.97;0.87;;;;;;;;;;5007665;28;20435;-79
2023/11/24 13:08:30;;;;;;;4.07;0.70;;;;;;;;;;5002660;28;20427;-79
2023/11/24 13:10:57;;;;;;;1.73;0.73;;;;;;;;;;4995091;28;20423;-78
2023/11/24 13:13:24;;;;;;;2.60;0.50;;;;;;;;;;4995051;28;20511;-79
2023/11/24 13:15:50;;;;;;;2.20;0.30;;;;;;;;;;4995041;28;20475;-80
2023/11/24 13:18:18;;;;;;;2.50;0.77;;;;;;;;;;4995018;28;20411;-80
2023/11/24 13:20:44;;;;;;;5.07;0.57;;;;;;;;;;4994807;28;20473;-78
2023/11/24 13:23:10;;;;;;;6.30;1.03;;;;;;;;;;4994387;28;20407;-79
2023/11/24 13:25:37;;;;;;;3.63;0.63;;;;;;;;;;4994687;28;20459;-79
2023/11/24 13:28:05;;;;;;;2.20;0.60;;;;;;;;;;4994790;28;20404;-79
2023/11/24 13:30:31;;;;;;;1.80;0.50;;;;;;;;;;5001435;28;20549;-79
2023/11/24 13:32:58;;;;;;;3.40;0.77;;;;;;;;;;5003172;28;20474;-78
2023/11/24 13:35:25;;;;;;;8.63;0.83;;;;;;;;;;4994582;28;20420;-78
2023/11/24 13:37:51;;;;;;;2.60;0.37;;;;;;;;;;4995900;28;20423;-79
2023/11/24 13:40:19;;;;;;;4.13;0.80;;;;;;;;;;5002925;28;20673;-79
2023/11/24 13:42:46;;;;;;;4.47;0.57;;;;;;;;;;4983071;28;20437;-79
2023/11/24 13:45:12;;;;;;;10.20;1.50;;;;;;;;;;5033733;28;20509;-78
2023/11/24 13:47:39;;;;;;;12.50;1.73;;;;;;;;;;5000735;28;20447;-79
2023/11/24 13:50:06;;;;;;;3.33;0.50;;;;;;;;;;5009818;28;21200;-79
2023/11/24 13:52:32;;;;;;;5.47;1.20;;;;;;;;;;5005497;28;20426;-79
2023/11/24 13:55:00;;;;;;;7.23;2.13;;;;;;;;;;4993836;28;20410;-79
2023/11/24 13:57:26;;;;;;;2.63;0.50;;;;;;;;;;4994188;28;20846;-80
2023/11/24 13:59:52;;;;;;;5.27;0.90;;;;;;;;;;4993881;28;20482;-79
2023/11/24 14:02:18;;;;;;;7.97;1.23;;;;;;;;;;4994014;28;20504;-78
2023/11/24 14:04:44;;;;;;;8.80;0.43;;;;;;;;;;5009260;28;20460;-78
2023/11/24 14:07:12;;;;;;;6.90;0.80;;;;;;;;;;5012213;28;20426;-79
2023/11/24 14:09:40;;;;;;;5.00;0.97;;;;;;;;;;5013260;28;20421;-78
2023/11/24 14:12:06;;;;;;;2.10;0.30;;;;;;;;;;5013412;28;20410;-77
2023/11/24 14:14:33;;;;;;;2.77;0.53;;;;;;;;;;5013540;28;21053;-77
2023/11/24 14:17:05;;;;;;;8.80;1.00;;;;;;;;;;5013436;28;20399;-78
2023/11/24 14:19:31;;;;;;;3.83;0.73;;;;;;;;;;5012066;28;20437;-78
2023/11/24 14:21:58;;;;;;;7.10;0.77;;;;;;;;;;5015804;28;20432;-79
2023/11/24 14:24:24;;;;;;;2.93;0.40;;;;;;;;;;5022597;28;20914;-77
2023/11/24 14:26:50;;;;;;;4.10;0.77;;;;;;;;;;5013998;28;20437;-78
2023/11/24 14:29:17;;;;;;;3.30;0.37;;;;;;;;;;5013283;28;20503;-77
2023/11/24 14:31:43;;;;;;;4.67;1.27;;;;;;;;;;5012951;28;20454;-78
2023/11/24 14:34:10;;;;;;;4.20;1.03;;;;;;;;;;5013061;28;20418;-78
2023/11/24 14:36:37;;;;;;;4.80;0.93;;;;;;;;;;5012666;28;20419;-79
2023/11/24 14:39:03;;;;;;;5.30;1.30;;;;;;;;;;5012945;28;20419;-78